sensor_id;sensor_type;location;lat;lon;timestamp;P1;durP1;ratioP1;P2;durP2;ratioP2
75935;SDS011;64614;32.062;34.834;2022-11-15T00:00:46;24.40;;;17.95;;
75935;SDS011;64614;32.062;34.834;2022-11-15T00:03:19;27.50;;;21.27;;
75935;SDS011;64614;32.062;34.834;2022-11-15T00:05:46;27.98;;;19.25;;
75935;SDS011;64614;32.062;34.834;2022-11-15T00:08:12;28.75;;;20.63;;
75935;SDS011;64614;32.062;34.834;2022-11-15T00:10:38;26.88;;;19.70;;
75935;SDS011;64614;32.062;34.834;2022-11-15T00:13:07;27.15;;;20.50;;
75935;SDS011;64614;32.062;34.834;2022-11-15T00:15:35;28.00;;;20.50;;
75935;SDS011;64614;32.062;34.834;2022-11-15T00:18:05;30.10;;;22.05;;
75935;SDS011;64614;32.062;34.834;2022-11-15T00:20:34;29.67;;;20.80;;
75935;SDS011;64614;32.062;34.834;2022-11-15T00:23:00;25.50;;;18.48;;
75935;SDS011;64614;32.062;34.834;2022-11-15T00:25:29;25.70;;;16.10;;
75935;SDS011;64614;32.062;34.834;2022-11-15T00:27:55;22.92;;;16.38;;
75935;SDS011;64614;32.062;34.834;2022-11-15T00:30:21;22.85;;;14.90;;
75935;SDS011;64614;32.062;34.834;2022-11-15T00:32:47;27.90;;;18.52;;
75935;SDS011;64614;32.062;34.834;2022-11-15T00:35:13;25.75;;;18.17;;
75935;SDS011;64614;32.062;34.834;2022-11-15T00:37:41;24.80;;;15.93;;
75935;SDS011;64614;32.062;34.834;2022-11-15T00:40:10;23.30;;;16.73;;
75935;SDS011;64614;32.062;34.834;2022-11-15T00:42:39;26.05;;;18.45;;
75935;SDS011;64614;32.062;34.834;2022-11-15T00:45:05;26.55;;;19.20;;
75935;SDS011;64614;32.062;34.834;2022-11-15T00:47:31;26.83;;;18.73;;
75935;SDS011;64614;32.062;34.834;2022-11-15T00:49:57;25.05;;;16.98;;
75935;SDS011;64614;32.062;34.834;2022-11-15T00:52:23;27.27;;;19.23;;
75935;SDS011;64614;32.062;34.834;2022-11-15T00:54:49;22.85;;;15.43;;
75935;SDS011;64614;32.062;34.834;2022-11-15T00:57:14;23.05;;;15.52;;
75935;SDS011;64614;32.062;34.834;2022-11-15T00:59:40;20.90;;;14.55;;
75935;SDS011;64614;32.062;34.834;2022-11-15T01:02:05;20.63;;;14.75;;
75935;SDS011;64614;32.062;34.834;2022-11-15T01:04:31;22.98;;;15.63;;
75935;SDS011;64614;32.062;34.834;2022-11-15T01:06:57;21.90;;;15.88;;
75935;SDS011;64614;32.062;34.834;2022-11-15T01:09:22;21.50;;;16.20;;
75935;SDS011;64614;32.062;34.834;2022-11-15T01:11:48;22.13;;;15.75;;
75935;SDS011;64614;32.062;34.834;2022-11-15T01:14:14;19.77;;;13.95;;
75935;SDS011;64614;32.062;34.834;2022-11-15T01:16:39;21.10;;;14.93;;
75935;SDS011;64614;32.062;34.834;2022-11-15T01:19:05;19.45;;;13.38;;
75935;SDS011;64614;32.062;34.834;2022-11-15T01:21:31;20.45;;;13.55;;
75935;SDS011;64614;32.062;34.834;2022-11-15T01:23:56;21.77;;;14.48;;
75935;SDS011;64614;32.062;34.834;2022-11-15T01:26:22;21.90;;;14.95;;
75935;SDS011;64614;32.062;34.834;2022-11-15T01:28:49;19.90;;;13.85;;
75935;SDS011;64614;32.062;34.834;2022-11-15T01:31:16;26.92;;;19.60;;
75935;SDS011;64614;32.062;34.834;2022-11-15T01:33:44;22.83;;;16.42;;
75935;SDS011;64614;32.062;34.834;2022-11-15T01:36:15;23.95;;;17.98;;
75935;SDS011;64614;32.062;34.834;2022-11-15T01:38:47;23.30;;;17.45;;
75935;SDS011;64614;32.062;34.834;2022-11-15T01:41:19;23.45;;;17.75;;
75935;SDS011;64614;32.062;34.834;2022-11-15T01:43:47;21.65;;;16.92;;
75935;SDS011;64614;32.062;34.834;2022-11-15T01:46:30;20.40;;;15.50;;
75935;SDS011;64614;32.062;34.834;2022-11-15T01:49:02;20.98;;;15.05;;
75935;SDS011;64614;32.062;34.834;2022-11-15T01:51:35;19.67;;;16.13;;
75935;SDS011;64614;32.062;34.834;2022-11-15T01:54:02;20.15;;;15.95;;
75935;SDS011;64614;32.062;34.834;2022-11-15T01:56:36;17.58;;;13.63;;
75935;SDS011;64614;32.062;34.834;2022-11-15T01:59:06;17.48;;;13.77;;
75935;SDS011;64614;32.062;34.834;2022-11-15T02:01:33;15.02;;;10.10;;
75935;SDS011;64614;32.062;34.834;2022-11-15T02:06:49;15.48;;;11.30;;
75935;SDS011;64614;32.062;34.834;2022-11-15T02:09:16;16.10;;;11.32;;
75935;SDS011;64614;32.062;34.834;2022-11-15T02:11:42;15.05;;;11.27;;
75935;SDS011;64614;32.062;34.834;2022-11-15T02:14:10;14.88;;;11.02;;
75935;SDS011;64614;32.062;34.834;2022-11-15T02:25:37;15.98;;;10.90;;
75935;SDS011;64614;32.062;34.834;2022-11-15T02:28:16;15.43;;;11.77;;
75935;SDS011;64614;32.062;34.834;2022-11-15T02:42:09;17.50;;;10.52;;
75935;SDS011;64614;32.062;34.834;2022-11-15T02:44:58;14.82;;;10.20;;
75935;SDS011;64614;32.062;34.834;2022-11-15T02:47:29;13.35;;;9.10;;
75935;SDS011;64614;32.062;34.834;2022-11-15T02:50:06;15.75;;;10.15;;
75935;SDS011;64614;32.062;34.834;2022-11-15T02:52:35;14.93;;;10.45;;
75935;SDS011;64614;32.062;34.834;2022-11-15T02:55:00;15.50;;;9.50;;
75935;SDS011;64614;32.062;34.834;2022-11-15T03:00:06;16.15;;;9.55;;
75935;SDS011;64614;32.062;34.834;2022-11-15T03:02:44;15.70;;;10.50;;
75935;SDS011;64614;32.062;34.834;2022-11-15T03:07:59;18.35;;;11.00;;
75935;SDS011;64614;32.062;34.834;2022-11-15T03:15:41;15.30;;;8.95;;
75935;SDS011;64614;32.062;34.834;2022-11-15T03:18:21;16.27;;;9.52;;
75935;SDS011;64614;32.062;34.834;2022-11-15T03:21:01;19.77;;;11.25;;
75935;SDS011;64614;32.062;34.834;2022-11-15T03:23:30;21.50;;;12.88;;
75935;SDS011;64614;32.062;34.834;2022-11-15T03:25:57;13.45;;;7.95;;
75935;SDS011;64614;32.062;34.834;2022-11-15T03:28:36;15.00;;;8.65;;
75935;SDS011;64614;32.062;34.834;2022-11-15T03:31:07;16.80;;;10.02;;
75935;SDS011;64614;32.062;34.834;2022-11-15T03:33:54;17.63;;;9.68;;
75935;SDS011;64614;32.062;34.834;2022-11-15T03:36:22;15.75;;;10.13;;
75935;SDS011;64614;32.062;34.834;2022-11-15T03:38:51;14.57;;;8.98;;
75935;SDS011;64614;32.062;34.834;2022-11-15T03:41:33;14.23;;;9.23;;
75935;SDS011;64614;32.062;34.834;2022-11-15T03:46:57;17.05;;;9.18;;
75935;SDS011;64614;32.062;34.834;2022-11-15T03:49:30;12.85;;;7.15;;
75935;SDS011;64614;32.062;34.834;2022-11-15T03:52:02;16.05;;;11.20;;
75935;SDS011;64614;32.062;34.834;2022-11-15T03:54:29;13.38;;;8.15;;
75935;SDS011;64614;32.062;34.834;2022-11-15T03:56:55;14.35;;;8.90;;
75935;SDS011;64614;32.062;34.834;2022-11-15T03:59:20;21.10;;;10.43;;
75935;SDS011;64614;32.062;34.834;2022-11-15T04:01:46;17.15;;;10.68;;
75935;SDS011;64614;32.062;34.834;2022-11-15T04:04:12;19.10;;;13.32;;
75935;SDS011;64614;32.062;34.834;2022-11-15T04:06:38;14.35;;;8.95;;
75935;SDS011;64614;32.062;34.834;2022-11-15T04:09:03;15.75;;;8.77;;
75935;SDS011;64614;32.062;34.834;2022-11-15T04:11:29;14.18;;;8.57;;
75935;SDS011;64614;32.062;34.834;2022-11-15T04:13:55;15.43;;;9.02;;
75935;SDS011;64614;32.062;34.834;2022-11-15T04:16:21;15.85;;;8.98;;
75935;SDS011;64614;32.062;34.834;2022-11-15T04:18:46;16.88;;;8.18;;
75935;SDS011;64614;32.062;34.834;2022-11-15T04:21:32;18.85;;;12.07;;
75935;SDS011;64614;32.062;34.834;2022-11-15T04:24:16;16.00;;;9.88;;
75935;SDS011;64614;32.062;34.834;2022-11-15T04:26:41;14.48;;;9.45;;
75935;SDS011;64614;32.062;34.834;2022-11-15T04:29:07;13.70;;;8.70;;
75935;SDS011;64614;32.062;34.834;2022-11-15T04:31:51;18.95;;;8.70;;
75935;SDS011;64614;32.062;34.834;2022-11-15T04:34:17;19.80;;;8.40;;
75935;SDS011;64614;32.062;34.834;2022-11-15T04:36:43;17.35;;;11.05;;
75935;SDS011;64614;32.062;34.834;2022-11-15T04:39:26;18.63;;;8.65;;
75935;SDS011;64614;32.062;34.834;2022-11-15T04:41:52;15.20;;;8.73;;
75935;SDS011;64614;32.062;34.834;2022-11-15T04:44:18;20.10;;;11.75;;
75935;SDS011;64614;32.062;34.834;2022-11-15T04:46:43;17.42;;;9.70;;
75935;SDS011;64614;32.062;34.834;2022-11-15T04:49:09;20.67;;;10.45;;
75935;SDS011;64614;32.062;34.834;2022-11-15T04:51:34;19.02;;;11.75;;
75935;SDS011;64614;32.062;34.834;2022-11-15T04:54:00;21.40;;;11.13;;
75935;SDS011;64614;32.062;34.834;2022-11-15T04:56:26;25.27;;;15.20;;
75935;SDS011;64614;32.062;34.834;2022-11-15T04:58:51;18.88;;;11.10;;
75935;SDS011;64614;32.062;34.834;2022-11-15T05:01:17;17.27;;;10.98;;
75935;SDS011;64614;32.062;34.834;2022-11-15T05:03:43;18.05;;;10.73;;
75935;SDS011;64614;32.062;34.834;2022-11-15T05:06:28;17.35;;;10.52;;
75935;SDS011;64614;32.062;34.834;2022-11-15T05:08:54;19.38;;;11.27;;
75935;SDS011;64614;32.062;34.834;2022-11-15T05:11:20;17.73;;;9.80;;
75935;SDS011;64614;32.062;34.834;2022-11-15T05:13:46;17.33;;;10.68;;
75935;SDS011;64614;32.062;34.834;2022-11-15T05:16:12;19.77;;;10.25;;
75935;SDS011;64614;32.062;34.834;2022-11-15T05:18:37;17.63;;;9.98;;
75935;SDS011;64614;32.062;34.834;2022-11-15T05:23:32;20.42;;;10.98;;
75935;SDS011;64614;32.062;34.834;2022-11-15T05:25:59;17.42;;;10.32;;
75935;SDS011;64614;32.062;34.834;2022-11-15T05:28:29;24.65;;;12.32;;
75935;SDS011;64614;32.062;34.834;2022-11-15T05:31:04;18.70;;;10.25;;
75935;SDS011;64614;32.062;34.834;2022-11-15T05:33:31;17.13;;;10.27;;
75935;SDS011;64614;32.062;34.834;2022-11-15T05:36:07;17.95;;;10.68;;
75935;SDS011;64614;32.062;34.834;2022-11-15T05:38:44;18.73;;;10.50;;
75935;SDS011;64614;32.062;34.834;2022-11-15T05:41:11;19.98;;;10.82;;
75935;SDS011;64614;32.062;34.834;2022-11-15T05:43:37;17.80;;;12.30;;
75935;SDS011;64614;32.062;34.834;2022-11-15T05:46:05;19.58;;;11.48;;
75935;SDS011;64614;32.062;34.834;2022-11-15T05:48:31;23.40;;;12.63;;
75935;SDS011;64614;32.062;34.834;2022-11-15T05:50:59;21.67;;;12.18;;
75935;SDS011;64614;32.062;34.834;2022-11-15T05:53:27;17.48;;;9.35;;
75935;SDS011;64614;32.062;34.834;2022-11-15T05:55:53;19.75;;;11.15;;
75935;SDS011;64614;32.062;34.834;2022-11-15T05:58:18;18.50;;;11.05;;
75935;SDS011;64614;32.062;34.834;2022-11-15T06:00:45;25.73;;;12.52;;
75935;SDS011;64614;32.062;34.834;2022-11-15T06:03:11;51.38;;;21.52;;
75935;SDS011;64614;32.062;34.834;2022-11-15T06:05:39;36.63;;;19.83;;
75935;SDS011;64614;32.062;34.834;2022-11-15T06:08:05;40.28;;;20.25;;
75935;SDS011;64614;32.062;34.834;2022-11-15T06:10:31;42.70;;;23.63;;
75935;SDS011;64614;32.062;34.834;2022-11-15T06:13:01;41.63;;;22.05;;
75935;SDS011;64614;32.062;34.834;2022-11-15T06:15:28;42.65;;;23.80;;
75935;SDS011;64614;32.062;34.834;2022-11-15T06:17:57;40.33;;;20.45;;
75935;SDS011;64614;32.062;34.834;2022-11-15T06:20:26;39.25;;;21.00;;
75935;SDS011;64614;32.062;34.834;2022-11-15T06:22:56;45.30;;;24.75;;
75935;SDS011;64614;32.062;34.834;2022-11-15T06:25:23;60.53;;;23.40;;
75935;SDS011;64614;32.062;34.834;2022-11-15T06:27:55;39.35;;;21.35;;
75935;SDS011;64614;32.062;34.834;2022-11-15T06:30:22;43.92;;;24.90;;
75935;SDS011;64614;32.062;34.834;2022-11-15T06:32:49;49.15;;;23.05;;
75935;SDS011;64614;32.062;34.834;2022-11-15T06:35:14;48.58;;;24.65;;
75935;SDS011;64614;32.062;34.834;2022-11-15T06:37:41;38.38;;;23.30;;
75935;SDS011;64614;32.062;34.834;2022-11-15T06:40:07;49.05;;;23.08;;
75935;SDS011;64614;32.062;34.834;2022-11-15T06:42:34;44.55;;;23.85;;
75935;SDS011;64614;32.062;34.834;2022-11-15T06:45:00;38.20;;;22.05;;
75935;SDS011;64614;32.062;34.834;2022-11-15T06:47:26;40.45;;;22.02;;
75935;SDS011;64614;32.062;34.834;2022-11-15T06:49:52;41.17;;;20.52;;
75935;SDS011;64614;32.062;34.834;2022-11-15T06:52:17;52.58;;;21.95;;
75935;SDS011;64614;32.062;34.834;2022-11-15T06:54:44;37.92;;;21.35;;
75935;SDS011;64614;32.062;34.834;2022-11-15T06:57:10;42.42;;;21.77;;
75935;SDS011;64614;32.062;34.834;2022-11-15T06:59:36;41.83;;;22.02;;
75935;SDS011;64614;32.062;34.834;2022-11-15T07:02:02;31.98;;;16.50;;
75935;SDS011;64614;32.062;34.834;2022-11-15T07:07:02;38.97;;;19.90;;
75935;SDS011;64614;32.062;34.834;2022-11-15T07:09:27;34.95;;;17.27;;
75935;SDS011;64614;32.062;34.834;2022-11-15T07:11:53;38.50;;;18.92;;
75935;SDS011;64614;32.062;34.834;2022-11-15T07:14:18;28.67;;;14.93;;
75935;SDS011;64614;32.062;34.834;2022-11-15T07:16:44;24.50;;;13.98;;
75935;SDS011;64614;32.062;34.834;2022-11-15T07:19:10;31.80;;;17.92;;
75935;SDS011;64614;32.062;34.834;2022-11-15T07:21:35;38.63;;;21.40;;
75935;SDS011;64614;32.062;34.834;2022-11-15T07:24:01;40.10;;;20.80;;
75935;SDS011;64614;32.062;34.834;2022-11-15T07:26:27;35.80;;;22.15;;
75935;SDS011;64614;32.062;34.834;2022-11-15T07:28:52;27.73;;;13.45;;
75935;SDS011;64614;32.062;34.834;2022-11-15T07:31:18;31.38;;;17.00;;
75935;SDS011;64614;32.062;34.834;2022-11-15T07:33:43;22.33;;;13.55;;
75935;SDS011;64614;32.062;34.834;2022-11-15T07:36:09;22.75;;;12.65;;
75935;SDS011;64614;32.062;34.834;2022-11-15T07:38:35;22.75;;;13.73;;
75935;SDS011;64614;32.062;34.834;2022-11-15T07:41:03;20.70;;;11.77;;
75935;SDS011;64614;32.062;34.834;2022-11-15T07:43:29;20.15;;;11.07;;
75935;SDS011;64614;32.062;34.834;2022-11-15T07:45:57;32.17;;;16.02;;
75935;SDS011;64614;32.062;34.834;2022-11-15T07:48:23;26.63;;;14.20;;
75935;SDS011;64614;32.062;34.834;2022-11-15T07:50:49;22.23;;;12.85;;
75935;SDS011;64614;32.062;34.834;2022-11-15T07:53:15;19.55;;;10.98;;
75935;SDS011;64614;32.062;34.834;2022-11-15T07:55:41;20.85;;;11.25;;
75935;SDS011;64614;32.062;34.834;2022-11-15T07:58:07;19.02;;;11.93;;
75935;SDS011;64614;32.062;34.834;2022-11-15T08:00:35;20.80;;;11.10;;
75935;SDS011;64614;32.062;34.834;2022-11-15T08:03:02;17.42;;;9.32;;
75935;SDS011;64614;32.062;34.834;2022-11-15T08:05:33;13.02;;;7.68;;
75935;SDS011;64614;32.062;34.834;2022-11-15T08:08:00;17.52;;;9.65;;
75935;SDS011;64614;32.062;34.834;2022-11-15T08:10:26;13.77;;;7.45;;
75935;SDS011;64614;32.062;34.834;2022-11-15T08:13:01;20.13;;;13.07;;
75935;SDS011;64614;32.062;34.834;2022-11-15T08:15:30;16.42;;;10.98;;
75935;SDS011;64614;32.062;34.834;2022-11-15T08:17:57;19.90;;;13.40;;
75935;SDS011;64614;32.062;34.834;2022-11-15T08:20:24;18.27;;;10.20;;
75935;SDS011;64614;32.062;34.834;2022-11-15T08:22:50;18.92;;;11.80;;
75935;SDS011;64614;32.062;34.834;2022-11-15T08:25:16;14.23;;;8.98;;
75935;SDS011;64614;32.062;34.834;2022-11-15T08:27:42;14.00;;;8.68;;
75935;SDS011;64614;32.062;34.834;2022-11-15T08:30:08;16.40;;;10.40;;
75935;SDS011;64614;32.062;34.834;2022-11-15T08:32:34;14.88;;;8.90;;
75935;SDS011;64614;32.062;34.834;2022-11-15T08:35:00;14.15;;;7.65;;
75935;SDS011;64614;32.062;34.834;2022-11-15T08:37:26;15.43;;;10.23;;
75935;SDS011;64614;32.062;34.834;2022-11-15T08:39:51;18.05;;;8.18;;
75935;SDS011;64614;32.062;34.834;2022-11-15T08:42:17;44.58;;;13.27;;
75935;SDS011;64614;32.062;34.834;2022-11-15T08:44:43;17.00;;;8.45;;
75935;SDS011;64614;32.062;34.834;2022-11-15T08:47:10;13.75;;;7.05;;
75935;SDS011;64614;32.062;34.834;2022-11-15T08:49:37;12.95;;;7.53;;
75935;SDS011;64614;32.062;34.834;2022-11-15T08:52:03;13.00;;;8.50;;
75935;SDS011;64614;32.062;34.834;2022-11-15T08:54:29;20.05;;;11.02;;
75935;SDS011;64614;32.062;34.834;2022-11-15T08:56:54;13.93;;;7.68;;
75935;SDS011;64614;32.062;34.834;2022-11-15T08:59:20;19.95;;;11.63;;
75935;SDS011;64614;32.062;34.834;2022-11-15T09:01:45;10.20;;;6.53;;
75935;SDS011;64614;32.062;34.834;2022-11-15T09:04:11;11.60;;;5.85;;
75935;SDS011;64614;32.062;34.834;2022-11-15T09:06:37;12.80;;;7.13;;
75935;SDS011;64614;32.062;34.834;2022-11-15T09:09:02;13.75;;;7.93;;
75935;SDS011;64614;32.062;34.834;2022-11-15T09:11:28;12.55;;;7.13;;
75935;SDS011;64614;32.062;34.834;2022-11-15T09:13:54;11.75;;;6.28;;
75935;SDS011;64614;32.062;34.834;2022-11-15T09:16:20;11.18;;;6.13;;
75935;SDS011;64614;32.062;34.834;2022-11-15T09:18:46;19.67;;;8.35;;
75935;SDS011;64614;32.062;34.834;2022-11-15T09:21:12;12.63;;;7.32;;
75935;SDS011;64614;32.062;34.834;2022-11-15T09:23:38;25.08;;;11.20;;
75935;SDS011;64614;32.062;34.834;2022-11-15T09:26:04;24.98;;;11.30;;
75935;SDS011;64614;32.062;34.834;2022-11-15T09:28:30;15.52;;;7.82;;
75935;SDS011;64614;32.062;34.834;2022-11-15T09:31:00;11.95;;;6.63;;
75935;SDS011;64614;32.062;34.834;2022-11-15T09:33:27;13.77;;;8.13;;
75935;SDS011;64614;32.062;34.834;2022-11-15T09:35:53;11.23;;;6.85;;
75935;SDS011;64614;32.062;34.834;2022-11-15T09:38:19;12.52;;;7.38;;
75935;SDS011;64614;32.062;34.834;2022-11-15T09:40:47;9.93;;;6.90;;
75935;SDS011;64614;32.062;34.834;2022-11-15T09:49:03;12.57;;;9.05;;
75935;SDS011;64614;32.062;34.834;2022-11-15T09:51:33;12.60;;;7.70;;
75935;SDS011;64614;32.062;34.834;2022-11-15T09:54:09;10.15;;;6.03;;
75935;SDS011;64614;32.062;34.834;2022-11-15T09:56:42;8.00;;;5.35;;
75935;SDS011;64614;32.062;34.834;2022-11-15T10:02:42;11.23;;;6.47;;
75935;SDS011;64614;32.062;34.834;2022-11-15T10:04:56;11.85;;;7.10;;
75935;SDS011;64614;32.062;34.834;2022-11-15T10:12:47;12.20;;;7.47;;
75935;SDS011;64614;32.062;34.834;2022-11-15T10:15:16;14.48;;;9.23;;
75935;SDS011;64614;32.062;34.834;2022-11-15T10:20:52;10.52;;;6.35;;
75935;SDS011;64614;32.062;34.834;2022-11-15T10:23:23;12.07;;;7.20;;
75935;SDS011;64614;32.062;34.834;2022-11-15T10:25:55;13.18;;;7.70;;
75935;SDS011;64614;32.062;34.834;2022-11-15T10:30:54;10.88;;;6.57;;
75935;SDS011;64614;32.062;34.834;2022-11-15T10:38:51;13.05;;;8.05;;
75935;SDS011;64614;32.062;34.834;2022-11-15T10:44:02;12.88;;;8.35;;
75935;SDS011;64614;32.062;34.834;2022-11-15T10:46:48;11.80;;;8.00;;
75935;SDS011;64614;32.062;34.834;2022-11-15T10:49:19;10.88;;;7.05;;
75935;SDS011;64614;32.062;34.834;2022-11-15T10:51:58;10.65;;;6.63;;
75935;SDS011;64614;32.062;34.834;2022-11-15T10:54:42;14.00;;;9.07;;
75935;SDS011;64614;32.062;34.834;2022-11-15T10:57:21;11.82;;;6.63;;
75935;SDS011;64614;32.062;34.834;2022-11-15T10:59:54;12.45;;;7.40;;
75935;SDS011;64614;32.062;34.834;2022-11-15T11:02:36;11.68;;;7.13;;
75935;SDS011;64614;32.062;34.834;2022-11-15T11:05:46;10.05;;;6.82;;
75935;SDS011;64614;32.062;34.834;2022-11-15T11:08:02;17.50;;;9.75;;
75935;SDS011;64614;32.062;34.834;2022-11-15T11:10:54;11.95;;;7.55;;
75935;SDS011;64614;32.062;34.834;2022-11-15T11:13:22;13.88;;;8.35;;
75935;SDS011;64614;32.062;34.834;2022-11-15T11:18:39;16.80;;;11.05;;
75935;SDS011;64614;32.062;34.834;2022-11-15T11:24:25;17.75;;;10.77;;
75935;SDS011;64614;32.062;34.834;2022-11-15T11:32:37;11.88;;;6.13;;
75935;SDS011;64614;32.062;34.834;2022-11-15T11:41:13;10.13;;;6.78;;
75935;SDS011;64614;32.062;34.834;2022-11-15T11:47:01;10.82;;;6.88;;
75935;SDS011;64614;32.062;34.834;2022-11-15T11:55:03;12.02;;;6.88;;
75935;SDS011;64614;32.062;34.834;2022-11-15T12:00:21;13.85;;;8.45;;
75935;SDS011;64614;32.062;34.834;2022-11-15T12:03:07;10.52;;;7.18;;
75935;SDS011;64614;32.062;34.834;2022-11-15T12:06:16;10.75;;;6.05;;
75935;SDS011;64614;32.062;34.834;2022-11-15T12:08:41;13.77;;;8.13;;
75935;SDS011;64614;32.062;34.834;2022-11-15T12:11:20;12.88;;;8.40;;
75935;SDS011;64614;32.062;34.834;2022-11-15T12:13:55;11.27;;;7.88;;
75935;SDS011;64614;32.062;34.834;2022-11-15T12:16:26;20.83;;;10.70;;
75935;SDS011;64614;32.062;34.834;2022-11-15T12:18:54;13.30;;;7.38;;
75935;SDS011;64614;32.062;34.834;2022-11-15T12:21:43;18.30;;;8.90;;
75935;SDS011;64614;32.062;34.834;2022-11-15T12:26:57;16.02;;;9.07;;
75935;SDS011;64614;32.062;34.834;2022-11-15T12:29:56;14.80;;;9.07;;
75935;SDS011;64614;32.062;34.834;2022-11-15T12:32:32;13.88;;;7.97;;
75935;SDS011;64614;32.062;34.834;2022-11-15T12:35:00;11.77;;;6.95;;
75935;SDS011;64614;32.062;34.834;2022-11-15T12:37:32;10.98;;;6.40;;
75935;SDS011;64614;32.062;34.834;2022-11-15T12:40:15;9.45;;;5.80;;
75935;SDS011;64614;32.062;34.834;2022-11-15T12:45:37;14.85;;;8.32;;
75935;SDS011;64614;32.062;34.834;2022-11-15T12:51:16;16.38;;;8.82;;
75935;SDS011;64614;32.062;34.834;2022-11-15T12:53:35;10.57;;;6.70;;
75935;SDS011;64614;32.062;34.834;2022-11-15T13:01:07;13.23;;;6.57;;
75935;SDS011;64614;32.062;34.834;2022-11-15T13:03:33;12.80;;;6.47;;
75935;SDS011;64614;32.062;34.834;2022-11-15T13:06:00;13.68;;;8.02;;
75935;SDS011;64614;32.062;34.834;2022-11-15T13:08:37;11.30;;;5.30;;
75935;SDS011;64614;32.062;34.834;2022-11-15T13:20:07;13.05;;;7.95;;
75935;SDS011;64614;32.062;34.834;2022-11-15T13:22:44;12.82;;;6.97;;
75935;SDS011;64614;32.062;34.834;2022-11-15T13:25:19;15.07;;;7.30;;
75935;SDS011;64614;32.062;34.834;2022-11-15T13:30:40;11.95;;;6.80;;
75935;SDS011;64614;32.062;34.834;2022-11-15T13:35:59;7.78;;;4.32;;
75935;SDS011;64614;32.062;34.834;2022-11-15T13:38:32;11.77;;;6.82;;
75935;SDS011;64614;32.062;34.834;2022-11-15T13:41:00;12.32;;;6.55;;
75935;SDS011;64614;32.062;34.834;2022-11-15T13:43:41;15.15;;;7.55;;
75935;SDS011;64614;32.062;34.834;2022-11-15T13:46:11;11.88;;;6.72;;
75935;SDS011;64614;32.062;34.834;2022-11-15T13:48:54;10.27;;;6.45;;
75935;SDS011;64614;32.062;34.834;2022-11-15T13:56:52;11.63;;;6.55;;
75935;SDS011;64614;32.062;34.834;2022-11-15T13:59:26;12.90;;;6.45;;
75935;SDS011;64614;32.062;34.834;2022-11-15T14:01:56;10.77;;;6.28;;
75935;SDS011;64614;32.062;34.834;2022-11-15T14:04:26;11.93;;;6.53;;
75935;SDS011;64614;32.062;34.834;2022-11-15T14:11:58;13.65;;;6.43;;
75935;SDS011;64614;32.062;34.834;2022-11-15T14:14:25;11.73;;;6.45;;
75935;SDS011;64614;32.062;34.834;2022-11-15T14:16:53;9.88;;;5.65;;
75935;SDS011;64614;32.062;34.834;2022-11-15T14:24:37;15.43;;;5.00;;
75935;SDS011;64614;32.062;34.834;2022-11-15T14:27:16;12.63;;;5.95;;
75935;SDS011;64614;32.062;34.834;2022-11-15T14:29:44;19.60;;;6.55;;
75935;SDS011;64614;32.062;34.834;2022-11-15T14:32:20;10.30;;;6.10;;
75935;SDS011;64614;32.062;34.834;2022-11-15T14:34:48;15.00;;;6.80;;
75935;SDS011;64614;32.062;34.834;2022-11-15T14:37:28;10.30;;;6.20;;
75935;SDS011;64614;32.062;34.834;2022-11-15T14:40:00;9.43;;;6.35;;
75935;SDS011;64614;32.062;34.834;2022-11-15T14:42:27;9.32;;;6.45;;
75935;SDS011;64614;32.062;34.834;2022-11-15T14:44:53;10.52;;;6.38;;
75935;SDS011;64614;32.062;34.834;2022-11-15T14:47:19;11.75;;;5.72;;
75935;SDS011;64614;32.062;34.834;2022-11-15T14:49:45;10.60;;;5.70;;
75935;SDS011;64614;32.062;34.834;2022-11-15T14:52:24;12.00;;;7.10;;
75935;SDS011;64614;32.062;34.834;2022-11-15T14:54:52;10.23;;;7.25;;
75935;SDS011;64614;32.062;34.834;2022-11-15T14:57:18;11.68;;;6.47;;
75935;SDS011;64614;32.062;34.834;2022-11-15T14:59:44;25.75;;;7.05;;
75935;SDS011;64614;32.062;34.834;2022-11-15T15:02:13;9.57;;;5.63;;
75935;SDS011;64614;32.062;34.834;2022-11-15T15:04:42;10.20;;;6.72;;
75935;SDS011;64614;32.062;34.834;2022-11-15T15:07:07;11.35;;;6.00;;
75935;SDS011;64614;32.062;34.834;2022-11-15T15:09:34;8.43;;;6.00;;
75935;SDS011;64614;32.062;34.834;2022-11-15T15:12:00;11.15;;;6.43;;
75935;SDS011;64614;32.062;34.834;2022-11-15T15:14:26;10.23;;;6.75;;
75935;SDS011;64614;32.062;34.834;2022-11-15T15:16:51;9.38;;;5.68;;
75935;SDS011;64614;32.062;34.834;2022-11-15T15:19:17;9.88;;;6.20;;
75935;SDS011;64614;32.062;34.834;2022-11-15T15:21:42;10.80;;;6.82;;
75935;SDS011;64614;32.062;34.834;2022-11-15T15:24:13;10.63;;;6.03;;
75935;SDS011;64614;32.062;34.834;2022-11-15T15:26:39;9.60;;;6.50;;
75935;SDS011;64614;32.062;34.834;2022-11-15T15:29:05;12.38;;;6.57;;
75935;SDS011;64614;32.062;34.834;2022-11-15T15:31:33;15.20;;;6.30;;
75935;SDS011;64614;32.062;34.834;2022-11-15T15:33:59;12.05;;;6.07;;
75935;SDS011;64614;32.062;34.834;2022-11-15T15:36:25;11.73;;;5.43;;
75935;SDS011;64614;32.062;34.834;2022-11-15T15:38:51;13.43;;;7.18;;
75935;SDS011;64614;32.062;34.834;2022-11-15T15:41:17;11.63;;;5.82;;
75935;SDS011;64614;32.062;34.834;2022-11-15T15:43:43;11.65;;;5.95;;
75935;SDS011;64614;32.062;34.834;2022-11-15T15:46:12;9.90;;;5.55;;
75935;SDS011;64614;32.062;34.834;2022-11-15T15:48:40;10.45;;;5.63;;
75935;SDS011;64614;32.062;34.834;2022-11-15T15:51:06;8.70;;;5.70;;
75935;SDS011;64614;32.062;34.834;2022-11-15T15:53:32;10.60;;;5.65;;
75935;SDS011;64614;32.062;34.834;2022-11-15T15:55:58;11.40;;;5.38;;
75935;SDS011;64614;32.062;34.834;2022-11-15T16:00:59;9.45;;;5.57;;
75935;SDS011;64614;32.062;34.834;2022-11-15T16:03:24;10.60;;;5.63;;
75935;SDS011;64614;32.062;34.834;2022-11-15T16:05:50;8.82;;;5.60;;
75935;SDS011;64614;32.062;34.834;2022-11-15T16:08:22;10.63;;;5.60;;
75935;SDS011;64614;32.062;34.834;2022-11-15T16:10:49;10.82;;;5.38;;
75935;SDS011;64614;32.062;34.834;2022-11-15T16:13:15;9.13;;;5.88;;
75935;SDS011;64614;32.062;34.834;2022-11-15T16:15:43;8.30;;;5.57;;
75935;SDS011;64614;32.062;34.834;2022-11-15T16:18:20;8.95;;;5.80;;
75935;SDS011;64614;32.062;34.834;2022-11-15T16:20:47;9.23;;;5.75;;
75935;SDS011;64614;32.062;34.834;2022-11-15T16:23:21;9.48;;;5.18;;
75935;SDS011;64614;32.062;34.834;2022-11-15T16:25:53;9.23;;;5.40;;
75935;SDS011;64614;32.062;34.834;2022-11-15T16:28:26;8.02;;;5.03;;
75935;SDS011;64614;32.062;34.834;2022-11-15T16:31:13;9.25;;;5.75;;
75935;SDS011;64614;32.062;34.834;2022-11-15T16:33:39;8.45;;;5.10;;
75935;SDS011;64614;32.062;34.834;2022-11-15T16:36:10;11.15;;;5.55;;
75935;SDS011;64614;32.062;34.834;2022-11-15T16:38:43;9.25;;;5.80;;
75935;SDS011;64614;32.062;34.834;2022-11-15T16:41:08;10.32;;;5.80;;
75935;SDS011;64614;32.062;34.834;2022-11-15T16:43:34;12.65;;;6.28;;
75935;SDS011;64614;32.062;34.834;2022-11-15T16:46:02;8.50;;;5.28;;
75935;SDS011;64614;32.062;34.834;2022-11-15T16:48:34;11.23;;;5.78;;
75935;SDS011;64614;32.062;34.834;2022-11-15T16:50:59;14.93;;;5.93;;
75935;SDS011;64614;32.062;34.834;2022-11-15T16:53:25;9.77;;;5.50;;